createdAt,value
2022-10-14T00:00:34.345Z,98289.44
2022-10-14T00:03:36.699Z,98281.94
2022-10-14T00:06:38.236Z,98281.94
2022-10-14T00:09:42.012Z,98270.72
2022-10-14T00:12:45.423Z,98267.34
2022-10-14T00:15:46.946Z,98268.56
2022-10-14T00:18:48.691Z,98275.25
2022-10-14T00:21:50.258Z,98273.81
2022-10-14T00:24:51.828Z,98272.91
2022-10-14T00:27:58.428Z,98267.22
2022-10-14T00:31:00.643Z,98261.00
2022-10-14T00:34:02.192Z,98251.75
2022-10-14T00:37:03.851Z,98242.75
2022-10-14T00:40:06.025Z,98239.09
2022-10-14T00:43:10.081Z,98234.31
2022-10-14T00:46:11.599Z,98231.34
2022-10-14T00:49:22.208Z,98222.84
2022-10-14T00:52:24.543Z,98225.72
2022-10-14T00:55:26.980Z,98209.97
2022-10-14T00:58:28.531Z,98209.91
2022-10-14T01:01:30.105Z,98204.28
2022-10-14T01:04:31.634Z,98199.53
2022-10-14T01:07:52.009Z,98198.34
2022-10-14T01:11:08.193Z,98190.41
2022-10-14T01:14:09.749Z,98194.66
2022-10-14T01:17:14.495Z,98201.59
2022-10-14T01:20:45.692Z,98187.97
2022-10-14T01:24:09.791Z,98187.94
2022-10-14T01:27:26.665Z,98195.66
2022-10-14T01:30:34.663Z,98174.16
2022-10-14T01:33:38.340Z,98157.03
2022-10-14T01:36:43.045Z,98157.31
2022-10-14T01:39:45.932Z,98159.06
2022-10-14T01:42:47.593Z,98153.53
2022-10-14T01:45:49.168Z,98165.13
2022-10-14T01:48:59.010Z,98149.91
2022-10-14T01:52:07.675Z,98148.03
2022-10-14T01:55:10.016Z,98133.13
2022-10-14T01:58:12.537Z,98134.78
2022-10-14T02:01:14.142Z,98119.00
2022-10-14T02:04:16.389Z,98112.38
2022-10-14T02:07:33.020Z,98127.88
2022-10-14T02:11:02.339Z,98124.06
2022-10-14T02:14:13.451Z,98123.56
2022-10-14T02:17:36.849Z,98113.38
2022-10-14T02:20:42.702Z,98111.56
2022-10-14T02:23:49.613Z,98119.16
2022-10-14T02:26:51.352Z,98111.47
2022-10-14T02:29:53.404Z,98108.41
2022-10-14T02:32:54.981Z,98110.75
2022-10-14T02:35:56.633Z,98109.59
2022-10-14T02:38:58.912Z,98100.25
2022-10-14T02:42:00.501Z,98095.59
2022-10-14T02:45:02.097Z,98094.72
2022-10-14T02:48:03.843Z,98091.13
2022-10-14T02:51:05.493Z,98094.16
2022-10-14T02:54:07.088Z,98077.56
2022-10-14T02:57:08.930Z,98086.56
2022-10-14T03:00:11.046Z,98073.16
2022-10-14T03:03:13.453Z,98073.63
2022-10-14T03:06:15.165Z,98087.34
2022-10-14T03:09:17.321Z,98084.69
2022-10-14T03:12:22.160Z,98080.84
2022-10-14T03:15:24.996Z,98077.66
2022-10-14T03:18:27.603Z,98070.28
2022-10-14T03:21:35.094Z,98072.25
2022-10-14T03:24:36.680Z,98055.59
2022-10-14T03:27:56.800Z,98066.16
2022-10-14T03:31:10.946Z,98049.28
2022-10-14T03:34:35.348Z,98045.25
2022-10-14T03:37:47.552Z,98037.22
2022-10-14T03:40:54.306Z,98034.25
2022-10-14T03:43:56.444Z,98034.91
2022-10-14T03:46:58.269Z,98036.16
2022-10-14T03:50:05.198Z,98032.22
2022-10-14T03:53:12.986Z,98032.81
2022-10-14T03:56:14.712Z,98028.44
2022-10-14T03:59:16.812Z,98020.03
2022-10-14T04:02:23.372Z,98029.31
2022-10-14T04:05:33.710Z,98020.13
2022-10-14T04:08:38.863Z,98027.44
2022-10-14T04:12:06.273Z,98015.38
2022-10-14T04:15:21.641Z,98007.13
2022-10-14T04:18:58.861Z,98011.00
2022-10-14T04:22:00.592Z,98001.75
2022-10-14T04:25:02.796Z,98002.31
2022-10-14T04:28:04.601Z,98002.53
2022-10-14T04:31:18.266Z,97995.06
2022-10-14T04:34:27.230Z,97992.69
2022-10-14T04:37:29.942Z,97990.78
2022-10-14T04:40:44.730Z,97988.88
2022-10-14T04:43:46.639Z,97990.03
2022-10-14T04:46:57.689Z,97991.84
2022-10-14T04:50:01.185Z,97999.66
2022-10-14T04:53:05.212Z,97989.19
2022-10-14T04:56:07.316Z,97995.34
2022-10-14T04:59:15.909Z,97986.66
2022-10-14T05:02:44.305Z,97988.28
2022-10-14T05:05:46.204Z,97995.25
2022-10-14T05:08:48.162Z,97997.75
2022-10-14T05:11:49.761Z,97991.41
2022-10-14T05:14:56.355Z,97984.84
2022-10-14T05:18:04.557Z,97991.66
2022-10-14T05:21:21.369Z,97982.81
2022-10-14T05:24:35.173Z,97972.50
2022-10-14T05:27:37.482Z,97969.00
2022-10-14T05:30:39.460Z,97965.84
2022-10-14T05:33:45.324Z,97960.59
2022-10-14T05:36:47.280Z,97955.72
2022-10-14T05:39:50.296Z,97947.97
2022-10-14T05:42:54.897Z,97942.50
2022-10-14T05:45:56.497Z,97949.88
2022-10-14T05:49:02.562Z,97964.25
2022-10-14T05:52:04.314Z,97951.47
2022-10-14T05:55:08.309Z,97940.66
2022-10-14T05:58:10.392Z,97934.81
2022-10-14T06:01:15.637Z,97927.84
2022-10-14T06:04:18.581Z,97929.06
2022-10-14T06:07:20.279Z,97922.97
2022-10-14T06:10:22.755Z,97913.09
2022-10-14T06:13:24.362Z,97920.84
2022-10-14T06:16:26.518Z,97920.63
2022-10-14T06:19:28.435Z,97917.47
2022-10-14T06:22:30.857Z,97925.38
2022-10-14T06:25:32.634Z,97926.06
2022-10-14T06:28:34.290Z,97919.75
2022-10-14T06:31:35.879Z,97931.47
2022-10-14T06:34:37.470Z,97923.19
2022-10-14T06:37:39.042Z,97925.97
2022-10-14T06:40:40.645Z,97930.41
2022-10-14T06:43:42.264Z,97924.34
2022-10-14T06:46:44.086Z,97922.81
2022-10-14T06:49:45.628Z,97914.88
2022-10-14T06:52:47.192Z,97906.31
2022-10-14T06:55:48.720Z,97913.47
2022-10-14T06:58:54.213Z,97915.34
2022-10-14T07:01:55.957Z,97915.56
2022-10-14T07:04:57.565Z,97908.09
2022-10-14T07:11:05.568Z,97908.88
2022-10-14T07:14:07.996Z,97912.91
2022-10-14T07:17:09.789Z,97905.81
2022-10-14T07:20:12.442Z,97904.66
2022-10-14T07:23:14.034Z,97909.22
2022-10-14T07:26:15.596Z,97910.69
2022-10-14T07:29:17.313Z,97924.47
2022-10-14T07:32:18.970Z,97926.06
2022-10-14T07:35:20.706Z,97931.56
2022-10-14T07:38:22.507Z,97921.44
2022-10-14T07:41:24.587Z,97928.31
2022-10-14T07:44:27.375Z,97930.69
2022-10-14T07:47:29.349Z,97922.00
2022-10-14T07:50:30.925Z,97929.78
2022-10-14T07:53:32.525Z,97932.47
2022-10-14T07:56:35.205Z,97929.69
2022-10-14T07:59:36.727Z,97931.13
2022-10-14T08:02:38.280Z,97940.00
2022-10-14T08:05:39.861Z,97943.19
2022-10-14T08:08:41.582Z,97934.59
2022-10-14T08:11:43.397Z,97932.72
2022-10-14T08:14:44.998Z,97939.53
2022-10-14T08:17:46.593Z,97944.72
2022-10-14T08:20:48.244Z,97947.78
2022-10-14T08:23:49.857Z,97943.38
2022-10-14T08:26:52.545Z,97937.44
2022-10-14T08:29:54.410Z,97938.94
2022-10-14T08:32:56.033Z,97939.69
2022-10-14T08:35:57.781Z,97940.91
2022-10-14T08:38:59.940Z,97936.75
2022-10-14T08:42:07.689Z,97943.69
2022-10-14T08:45:10.982Z,97941.97
2022-10-14T08:48:13.762Z,97926.13
2022-10-14T08:51:15.947Z,97934.78
2022-10-14T08:54:43.821Z,97928.22
2022-10-14T08:57:49.725Z,97924.78
2022-10-14T09:00:51.942Z,97923.88
2022-10-14T09:04:03.450Z,97911.47
2022-10-14T09:07:04.961Z,97936.63
2022-10-14T09:10:07.949Z,97914.00
2022-10-14T09:13:15.633Z,97919.84
2022-10-14T09:16:22.109Z,97930.69
2022-10-14T09:19:23.948Z,97905.41
2022-10-14T09:22:26.033Z,97898.03
2022-10-14T09:25:27.613Z,97916.88
2022-10-14T09:28:36.856Z,97913.41
2022-10-14T09:31:38.463Z,97911.19
2022-10-14T09:34:41.155Z,97902.06
2022-10-14T09:37:42.684Z,97923.31
2022-10-14T09:40:45.234Z,97914.66
2022-10-14T09:44:05.525Z,97921.63
2022-10-14T09:47:09.447Z,97910.56
2022-10-14T09:50:19.926Z,97900.97
2022-10-14T09:53:26.561Z,97904.47
2022-10-14T09:56:31.815Z,97896.09
2022-10-14T09:59:33.699Z,97890.75
2022-10-14T10:02:44.725Z,97870.59
2022-10-14T10:05:46.493Z,97880.28
2022-10-14T10:08:54.082Z,97874.03
2022-10-14T10:11:56.146Z,97880.75
2022-10-14T10:14:58.997Z,97878.13
2022-10-14T10:18:00.665Z,97869.19
2022-10-14T10:21:02.283Z,97865.16
2022-10-14T10:24:03.949Z,97872.81
2022-10-14T10:27:09.829Z,97857.56
2022-10-14T10:30:16.214Z,97848.16
2022-10-14T10:33:28.785Z,97858.81
2022-10-14T10:36:41.566Z,97867.13
2022-10-14T10:39:48.824Z,97838.25
2022-10-14T10:43:02.670Z,97840.47
2022-10-14T10:46:04.247Z,97849.38
2022-10-14T10:49:10.350Z,97851.19
2022-10-14T10:52:30.759Z,97833.19
2022-10-14T10:58:49.783Z,97838.88
2022-10-14T11:02:10.191Z,97836.22
2022-10-14T11:05:24.133Z,97824.34
2022-10-14T11:09:06.183Z,97823.97
2022-10-14T11:12:21.133Z,97832.28
2022-10-14T11:15:35.573Z,97841.00
2022-10-14T11:18:47.591Z,97839.94
2022-10-14T11:21:49.167Z,97824.56
2022-10-14T11:24:54.720Z,97817.03
2022-10-14T11:27:57.292Z,97829.84
2022-10-14T11:31:28.657Z,97811.63
2022-10-14T11:34:30.222Z,97814.94
2022-10-14T11:37:31.709Z,97809.81
2022-10-14T11:40:37.972Z,97808.47
2022-10-14T11:43:42.010Z,97822.41
2022-10-14T11:46:44.232Z,97807.00
2022-10-14T11:49:53.100Z,97814.38
2022-10-14T11:52:56.588Z,97809.00
2022-10-14T11:56:01.590Z,97812.63
2022-10-14T11:59:06.054Z,97815.44
2022-10-14T12:02:21.404Z,97811.03
2022-10-14T12:05:23.213Z,97814.78
2022-10-14T12:08:28.484Z,97808.44
2022-10-14T12:11:35.185Z,97808.41
2022-10-14T12:14:38.447Z,97802.84
2022-10-14T12:17:45.238Z,97787.28
2022-10-14T12:20:51.902Z,97801.75
2022-10-14T12:23:58.641Z,97789.00
2022-10-14T12:27:04.671Z,97803.06
2022-10-14T12:30:18.209Z,97792.06
2022-10-14T12:33:22.945Z,97795.09
2022-10-14T12:36:33.857Z,97793.19
2022-10-14T12:39:35.511Z,97790.97
2022-10-14T12:42:39.195Z,97793.66
2022-10-14T12:45:49.033Z,97805.28
2022-10-14T12:48:50.929Z,97822.03
2022-10-14T12:51:55.736Z,97811.97
2022-10-14T12:54:57.297Z,97811.41
2022-10-14T12:58:02.188Z,97811.16
2022-10-14T13:01:07.247Z,97814.53
2022-10-14T13:04:19.148Z,97817.16
2022-10-14T13:07:40.428Z,97813.63
2022-10-14T13:10:47.034Z,97814.59
2022-10-14T13:13:50.297Z,97815.47
2022-10-14T13:16:51.864Z,97799.44
2022-10-14T13:19:53.400Z,97799.94
2022-10-14T13:23:15.168Z,97792.59
2022-10-14T13:26:32.057Z,97787.44
2022-10-14T13:29:51.945Z,97789.31
2022-10-14T13:32:55.143Z,97778.56
2022-10-14T13:36:16.923Z,97778.97
2022-10-14T13:39:18.433Z,97786.72
2022-10-14T13:42:23.269Z,97785.72
2022-10-14T13:45:42.133Z,97785.38
2022-10-14T13:48:44.388Z,97785.19
2022-10-14T13:51:55.075Z,97779.41
2022-10-14T13:55:10.015Z,97788.72
2022-10-14T13:58:15.661Z,97790.59
2022-10-14T14:01:17.973Z,97788.94
2022-10-14T14:04:23.880Z,97787.91
2022-10-14T14:11:15.182Z,97790.22
2022-10-14T14:14:14.801Z,97784.56
2022-10-14T14:17:20.415Z,97774.78
2022-10-14T14:20:25.775Z,97775.81
2022-10-14T14:23:28.585Z,97792.19
2022-10-14T14:26:36.941Z,97781.06
2022-10-14T14:29:40.740Z,97790.53
2022-10-14T14:32:42.221Z,97776.56
2022-10-14T14:35:54.602Z,97768.34
2022-10-14T14:39:01.235Z,97773.91
2022-10-14T14:42:02.752Z,97766.66
2022-10-14T14:45:05.835Z,97769.59
2022-10-14T14:48:07.362Z,97758.88
2022-10-14T14:51:10.013Z,97754.44
2022-10-14T14:54:18.412Z,97760.38
2022-10-14T14:57:20.811Z,97758.09
2022-10-14T15:00:22.766Z,97767.88
2022-10-14T15:03:31.929Z,97759.44
2022-10-14T15:06:33.999Z,97766.56
2022-10-14T15:09:37.594Z,97764.25
2022-10-14T15:12:42.051Z,97753.53
2022-10-14T15:15:51.606Z,97780.63
2022-10-14T15:19:11.563Z,97753.16
2022-10-14T15:22:16.130Z,97780.84
2022-10-14T15:25:17.632Z,97786.78
2022-10-14T15:28:31.911Z,97780.28
2022-10-14T15:31:34.868Z,97775.16
2022-10-14T15:34:36.457Z,97783.22
2022-10-14T15:37:37.995Z,97762.63
2022-10-14T15:40:42.076Z,97770.00
2022-10-14T15:43:43.959Z,97776.56
2022-10-14T15:47:04.170Z,97766.22
2022-10-14T15:50:12.702Z,97757.91
2022-10-14T15:53:14.320Z,97750.28
2022-10-14T15:56:17.192Z,97738.50
2022-10-14T15:59:19.527Z,97745.03
2022-10-14T16:02:25.339Z,97743.72
2022-10-14T16:05:28.963Z,97751.53
2022-10-14T16:08:30.544Z,97753.44
2022-10-14T16:11:32.037Z,97760.41
2022-10-14T16:14:34.173Z,97761.28
2022-10-14T16:17:36.589Z,97761.41
2022-10-14T16:20:38.263Z,97769.78
2022-10-14T16:23:40.111Z,97772.47
2022-10-14T16:26:42.335Z,97756.72
2022-10-14T16:29:46.005Z,97769.47
2022-10-14T16:32:47.619Z,97765.28
2022-10-14T16:35:50.097Z,97762.59
2022-10-14T16:38:52.014Z,97759.53
2022-10-14T16:41:55.761Z,97757.22
2022-10-14T16:44:57.317Z,97763.38
2022-10-14T16:47:58.895Z,97763.34
2022-10-14T16:51:00.476Z,97777.72
2022-10-14T16:54:02.049Z,97776.91
2022-10-14T16:57:04.422Z,97781.94
2022-10-14T17:00:07.230Z,97780.50
2022-10-14T17:03:09.073Z,97789.25
2022-10-14T17:06:10.617Z,97793.56
2022-10-14T17:09:12.245Z,97799.66
2022-10-14T17:12:14.437Z,97793.47
2022-10-14T17:15:16.220Z,97795.63
2022-10-14T17:18:18.006Z,97781.13
2022-10-14T17:21:19.769Z,97785.56
2022-10-14T17:24:22.693Z,97792.53
2022-10-14T17:27:24.711Z,97780.22
2022-10-14T17:30:27.081Z,97788.94
2022-10-14T17:33:28.633Z,97801.25
2022-10-14T17:36:33.221Z,97796.88
2022-10-14T17:39:35.045Z,97790.66
2022-10-14T17:42:36.565Z,97798.13
2022-10-14T17:45:38.300Z,97799.63
2022-10-14T17:48:42.249Z,97799.00
2022-10-14T17:51:45.019Z,97807.03
2022-10-14T17:54:46.564Z,97808.03
2022-10-14T17:57:48.208Z,97814.03
2022-10-14T18:00:49.724Z,97819.34
2022-10-14T18:03:51.434Z,97810.25
2022-10-14T18:06:54.195Z,97815.34
2022-10-14T18:09:55.874Z,97811.81
2022-10-14T18:12:58.048Z,97813.94
2022-10-14T18:16:06.774Z,97813.34
2022-10-14T18:19:09.241Z,97818.56
2022-10-14T18:22:11.289Z,97810.34
2022-10-14T18:25:15.180Z,97820.13
2022-10-14T18:28:16.889Z,97797.72
2022-10-14T18:31:19.356Z,97820.69
2022-10-14T18:34:22.552Z,97808.81
2022-10-14T18:37:24.056Z,97801.38
2022-10-14T18:40:25.700Z,97802.44
2022-10-14T18:43:27.477Z,97806.03
2022-10-14T18:46:29.961Z,97802.03
2022-10-14T18:49:33.640Z,97795.31
2022-10-14T18:52:38.250Z,97796.44
2022-10-14T18:55:39.782Z,97790.50
2022-10-14T18:58:45.609Z,97791.06
2022-10-14T19:01:47.588Z,97804.94
2022-10-14T19:04:49.482Z,97801.78
2022-10-14T19:07:51.017Z,97803.28
2022-10-14T19:11:02.353Z,97799.25
2022-10-14T19:14:04.217Z,97792.16
2022-10-14T19:17:06.109Z,97784.75
2022-10-14T19:20:08.706Z,97790.31
2022-10-14T19:23:10.540Z,97793.91
2022-10-14T19:26:13.644Z,97789.69
2022-10-14T19:29:15.544Z,97795.63
2022-10-14T19:32:17.037Z,97793.63
2022-10-14T19:35:21.659Z,97794.25
2022-10-14T19:38:23.357Z,97784.72
2022-10-14T19:41:25.693Z,97777.09
2022-10-14T19:44:27.466Z,97772.53
2022-10-14T19:47:29.088Z,97776.56
2022-10-14T19:50:30.691Z,97773.38
2022-10-14T19:53:32.211Z,97772.13
2022-10-14T19:56:33.777Z,97769.84
2022-10-14T19:59:35.415Z,97770.56
2022-10-14T20:05:43.396Z,97766.78
2022-10-14T20:08:46.022Z,97762.09
2022-10-14T20:11:47.662Z,97768.00
2022-10-14T20:14:49.272Z,97760.38
2022-10-14T20:17:50.835Z,97758.50
2022-10-14T20:20:52.394Z,97763.75
2022-10-14T20:23:54.039Z,97756.78
2022-10-14T20:26:56.294Z,97749.94
2022-10-14T20:29:58.688Z,97751.97
2022-10-14T20:33:00.324Z,97761.00
2022-10-14T20:36:02.525Z,97757.16
2022-10-14T20:39:04.093Z,97757.81
2022-10-14T20:42:07.167Z,97762.00
2022-10-14T20:45:08.981Z,97764.78
2022-10-14T20:48:10.510Z,97775.56
2022-10-14T20:51:15.901Z,97771.25
2022-10-14T20:54:17.618Z,97773.56
2022-10-14T20:57:19.117Z,97767.13
2022-10-14T21:00:20.679Z,97761.84
2022-10-14T21:03:22.438Z,97748.34
2022-10-14T21:06:24.360Z,97756.78
2022-10-14T21:09:27.319Z,97745.31
2022-10-14T21:12:29.138Z,97747.00
2022-10-14T21:15:30.865Z,97747.72
2022-10-14T21:18:32.447Z,97749.81
2022-10-14T21:21:38.026Z,97748.03
2022-10-14T21:24:41.284Z,97754.47
2022-10-14T21:27:42.831Z,97749.25
2022-10-14T21:30:44.366Z,97746.19
2022-10-14T21:33:47.053Z,97748.06
2022-10-14T21:36:48.602Z,97748.34
2022-10-14T21:39:50.140Z,97736.16
2022-10-14T21:42:52.319Z,97735.28
2022-10-14T21:45:54.054Z,97732.72
2022-10-14T21:48:57.195Z,97736.56
2022-10-14T21:51:58.733Z,97736.97
2022-10-14T21:55:00.303Z,97737.47
2022-10-14T21:58:01.869Z,97733.03
2022-10-14T22:01:07.654Z,97724.97
2022-10-14T22:04:09.392Z,97715.38
2022-10-14T22:07:11.237Z,97717.41
2022-10-14T22:10:31.521Z,97715.75
2022-10-14T22:13:34.381Z,97714.19
2022-10-14T22:16:35.966Z,97720.59
2022-10-14T22:19:37.581Z,97704.94
2022-10-14T22:22:39.101Z,97708.66
2022-10-14T22:25:40.785Z,97705.06
2022-10-14T22:28:42.459Z,97708.34
2022-10-14T22:31:44.281Z,97701.69
2022-10-14T22:34:47.136Z,97693.03
2022-10-14T22:37:48.775Z,97677.47
2022-10-14T22:40:50.281Z,97685.22
2022-10-14T22:43:53.009Z,97675.09
2022-10-14T22:46:54.554Z,97670.25
2022-10-14T22:49:56.137Z,97660.19
2022-10-14T22:52:57.706Z,97657.25
2022-10-14T22:55:59.493Z,97657.19
2022-10-14T22:59:02.434Z,97650.47
2022-10-14T23:02:04.128Z,97650.25
2022-10-14T23:05:05.925Z,97644.94
2022-10-14T23:08:12.045Z,97644.47
2022-10-14T23:11:17.473Z,97643.44
2022-10-14T23:14:19.022Z,97635.28
2022-10-14T23:17:20.555Z,97625.78
2022-10-14T23:20:22.266Z,97631.91
2022-10-14T23:23:23.784Z,97632.75
2022-10-14T23:26:26.122Z,97627.50
2022-10-14T23:29:27.746Z,97622.28
2022-10-14T23:32:29.270Z,97613.09
2022-10-14T23:35:31.013Z,97613.94
2022-10-14T23:38:32.955Z,97611.53
2022-10-14T23:41:34.701Z,97610.19
2022-10-14T23:44:36.742Z,97604.03
2022-10-14T23:47:38.258Z,97599.31
2022-10-14T23:50:39.914Z,97592.78
2022-10-14T23:53:41.485Z,97589.06
2022-10-14T23:56:43.085Z,97586.41
2022-10-14T23:59:44.621Z,97576.41
